Time,TemperatureF,DewpointF,PressureIn,WindDirection,WindDirectionDegrees,WindSpeedMPH,WindSpeedGustMPH,Humidity,HourlyPrecipIn,Conditions,Clouds,dailyrainin,SoftwareType,DateUTC
2013-08-04 00:11:00,52.9,51.0,29.84,NNW,331,0.0,4.0,92,0.00,,,0.00,weatherlink.com 1.10,2013-08-04 04:11:00,
2013-08-04 00:26:00,52.9,51.0,29.84,NW,325,0.0,2.0,92,0.00,,,0.00,weatherlink.com 1.10,2013-08-04 04:26:00,
2013-08-04 00:56:00,52.4,50.0,29.84,East,92,0.0,2.0,92,0.00,,,0.00,weatherlink.com 1.10,2013-08-04 04:56:00,
2013-08-04 01:26:00,51.8,50.0,29.84,SE,128,0.0,0.0,93,0.00,,,0.00,weatherlink.com 1.10,2013-08-04 05:26:00,
2013-08-04 01:41:00,51.5,50.0,29.84,SE,128,0.0,1.0,93,0.00,,,0.00,weatherlink.com 1.10,2013-08-04 05:41:00,
2013-08-04 01:56:00,51.0,49.0,29.84,SE,128,0.0,2.0,93,0.00,,,0.00,weatherlink.com 1.10,2013-08-04 05:56:00,
2013-08-04 02:12:00,51.1,49.0,29.85,SE,128,1.0,1.0,93,0.00,,,0.00,weatherlink.com 1.10,2013-08-04 06:12:00,
2013-08-04 02:26:00,50.5,49.0,29.84,SE,128,0.0,1.0,94,0.00,,,0.00,weatherlink.com 1.10,2013-08-04 06:26:00,
2013-08-04 02:41:00,50.4,49.0,29.84,SE,128,0.0,1.0,94,0.00,,,0.00,weatherlink.com 1.10,2013-08-04 06:41:00,
2013-08-04 02:57:00,50.4,49.0,29.84,SE,128,0.0,0.0,94,0.00,,,0.00,weatherlink.com 1.10,2013-08-04 06:57:00,
2013-08-04 03:11:00,50.4,49.0,29.83,SE,128,0.0,2.0,95,0.00,,,0.00,weatherlink.com 1.10,2013-08-04 07:11:00,
2013-08-04 03:26:00,50.7,49.0,29.83,SE,128,0.0,2.0,95,0.00,,,0.00,weatherlink.com 1.10,2013-08-04 07:26:00,
2013-08-04 03:42:00,50.5,49.0,29.83,SE,128,1.0,2.0,94,0.00,,,0.00,weatherlink.com 1.10,2013-08-04 07:42:00,
2013-08-04 03:57:00,50.2,49.0,29.83,SE,128,2.0,2.0,94,0.00,,,0.00,weatherlink.com 1.10,2013-08-04 07:57:00,
2013-08-04 04:12:00,50.2,49.0,29.83,SE,128,2.0,2.0,94,0.00,,,0.00,weatherlink.com 1.10,2013-08-04 08:12:00,
2013-08-04 04:27:00,50.1,49.0,29.83,ESE,107,0.0,1.0,95,0.00,,,0.00,weatherlink.com 1.10,2013-08-04 08:27:00,
2013-08-04 04:41:00,50.2,49.0,29.83,ESE,107,1.0,1.0,95,0.00,,,0.00,weatherlink.com 1.10,2013-08-04 08:41:00,
2013-08-04 04:57:00,50.2,49.0,29.83,ESE,107,0.0,2.0,95,0.00,,,0.00,weatherlink.com 1.10,2013-08-04 08:57:00,
2013-08-04 05:12:00,50.1,49.0,29.83,ESE,107,0.0,2.0,95,0.00,,,0.00,weatherlink.com 1.10,2013-08-04 09:12:00,
2013-08-04 05:27:00,50.0,49.0,29.84,ESE,107,0.0,0.0,95,0.00,,,0.00,weatherlink.com 1.10,2013-08-04 09:27:00,
2013-08-04 05:41:00,49.9,49.0,29.84,ESE,107,0.0,2.0,95,0.00,,,0.00,weatherlink.com 1.10,2013-08-04 09:41:00,
2013-08-04 05:56:00,50.1,49.0,29.84,ESE,107,0.0,0.0,95,0.00,,,0.00,weatherlink.com 1.10,2013-08-04 09:56:00,
2013-08-04 06:11:00,50.0,49.0,29.84,ESE,107,0.0,1.0,95,0.00,,,0.00,weatherlink.com 1.10,2013-08-04 10:11:00,
2013-08-04 06:27:00,50.3,49.0,29.84,ESE,107,0.0,0.0,96,0.00,,,0.00,weatherlink.com 1.10,2013-08-04 10:27:00,
2013-08-04 06:42:00,51.2,50.0,29.84,ESE,107,0.0,0.0,96,0.00,,,0.00,weatherlink.com 1.10,2013-08-04 10:42:00,
2013-08-04 06:56:00,52.0,51.0,29.84,ESE,107,0.0,1.0,95,0.00,,,0.00,weatherlink.com 1.10,2013-08-04 10:56:00,
2013-08-04 07:12:00,52.9,52.0,29.85,ESE,107,0.0,0.0,95,0.00,,,0.00,weatherlink.com 1.10,2013-08-04 11:12:00,
2013-08-04 07:27:00,53.6,52.0,29.85,ESE,107,0.0,0.0,94,0.00,,,0.00,weatherlink.com 1.10,2013-08-04 11:27:00,
2013-08-04 07:42:00,54.4,52.0,29.85,ESE,107,0.0,1.0,92,0.00,,,0.00,weatherlink.com 1.10,2013-08-04 11:42:00,
2013-08-04 07:57:00,55.4,53.0,29.85,ESE,107,0.0,2.0,92,0.00,,,0.00,weatherlink.com 1.10,2013-08-04 11:57:00,
2013-08-04 08:12:00,57.7,55.0,29.85,NNW,331,2.0,5.0,90,0.00,,,0.00,weatherlink.com 1.10,2013-08-04 12:12:00,
2013-08-04 08:27:00,58.7,55.0,29.85,NNE,17,4.0,7.0,86,0.00,,,0.00,weatherlink.com 1.10,2013-08-04 12:27:00,
2013-08-04 08:42:00,59.1,55.0,29.85,North,360,3.0,6.0,85,0.00,,,0.00,weatherlink.com 1.10,2013-08-04 12:42:00,
2013-08-04 08:57:00,59.4,55.0,29.85,NNW,344,4.0,8.0,85,0.00,,,0.00,weatherlink.com 1.10,2013-08-04 12:57:00,
2013-08-04 09:12:00,60.9,55.0,29.85,ENE,65,2.0,10.0,81,0.00,,,0.00,weatherlink.com 1.10,2013-08-04 13:12:00,
2013-08-04 09:27:00,61.6,55.0,29.85,North,355,8.0,8.0,79,0.00,,,0.00,weatherlink.com 1.10,2013-08-04 13:27:00,
2013-08-04 09:42:00,62.0,55.0,29.85,NNW,338,1.0,7.0,77,0.00,,,0.00,weatherlink.com 1.10,2013-08-04 13:42:00,
2013-08-04 09:57:00,62.9,55.0,29.85,NNE,12,2.0,11.0,74,0.00,,,0.00,weatherlink.com 1.10,2013-08-04 13:57:00,
2013-08-04 10:12:00,63.8,54.0,29.85,WNW,284,5.0,12.0,71,0.00,,,0.00,weatherlink.com 1.10,2013-08-04 14:12:00,
2013-08-04 10:27:00,63.6,54.0,29.86,NNW,348,3.0,13.0,70,0.00,,,0.00,weatherlink.com 1.10,2013-08-04 14:27:00,
2013-08-04 10:42:00,64.0,54.0,29.86,NW,321,1.0,10.0,69,0.00,,,0.00,weatherlink.com 1.10,2013-08-04 14:42:00,
2013-08-04 10:57:00,64.7,54.0,29.86,NNW,329,6.0,12.0,69,0.00,,,0.00,weatherlink.com 1.10,2013-08-04 14:57:00,
2013-08-04 11:13:00,64.6,54.0,29.86,NNW,347,3.0,10.0,69,0.00,,,0.00,weatherlink.com 1.10,2013-08-04 15:13:00,
2013-08-04 11:28:00,66.0,55.0,29.86,North,9,3.0,11.0,67,0.00,,,0.00,weatherlink.com 1.10,2013-08-04 15:28:00,
2013-08-04 11:43:00,66.8,55.0,29.86,North,355,4.0,13.0,66,0.00,,,0.00,weatherlink.com 1.10,2013-08-04 15:43:00,
2013-08-04 11:58:00,68.0,54.0,29.85,West,281,3.0,9.0,62,0.00,,,0.00,weatherlink.com 1.10,2013-08-04 15:58:00,
2013-08-04 12:12:00,68.4,53.0,29.85,West,276,8.0,10.0,59,0.00,,,0.00,weatherlink.com 1.10,2013-08-04 16:12:00,
2013-08-04 12:27:00,67.7,54.0,29.84,NNW,344,1.0,8.0,61,0.00,,,0.00,weatherlink.com 1.10,2013-08-04 16:27:00,
2013-08-04 12:43:00,70.0,53.0,29.83,WNW,297,4.0,7.0,55,0.00,,,0.00,weatherlink.com 1.10,2013-08-04 16:43:00,
2013-08-04 12:57:00,69.9,53.0,29.83,West,268,5.0,11.0,56,0.00,,,0.00,weatherlink.com 1.10,2013-08-04 16:57:00,
2013-08-04 13:13:00,70.4,54.0,29.82,WNW,286,4.0,12.0,56,0.00,,,0.00,weatherlink.com 1.10,2013-08-04 17:13:00,
2013-08-04 13:28:00,70.7,54.0,29.83,NNW,327,2.0,13.0,55,0.00,,,0.00,weatherlink.com 1.10,2013-08-04 17:28:00,
2013-08-04 13:43:00,65.4,55.0,29.85,NNW,338,4.0,17.0,68,0.00,,,0.00,weatherlink.com 1.10,2013-08-04 17:43:00,
2013-08-04 13:58:00,59.8,54.0,29.86,NW,309,2.0,13.0,82,0.01,,,0.01,weatherlink.com 1.10,2013-08-04 17:58:00,
2013-08-04 14:13:00,60.9,57.0,29.85,West,263,1.0,9.0,86,0.01,,,0.01,weatherlink.com 1.10,2013-08-04 18:13:00,
2013-08-04 14:28:00,61.8,56.0,29.84,SSW,208,3.0,9.0,81,0.02,,,0.02,weatherlink.com 1.10,2013-08-04 18:28:00,
2013-08-04 14:43:00,65.1,56.0,29.84,NNE,24,4.0,13.0,72,0.02,,,0.02,weatherlink.com 1.10,2013-08-04 18:43:00,
2013-08-04 14:58:00,67.0,54.0,29.84,East,86,2.0,14.0,64,0.01,,,0.02,weatherlink.com 1.10,2013-08-04 18:58:00,
2013-08-04 15:13:00,68.3,56.0,29.83,NNE,14,5.0,12.0,65,0.01,,,0.02,weatherlink.com 1.10,2013-08-04 19:13:00,
2013-08-04 15:28:00,70.0,54.0,29.84,NNW,333,3.0,12.0,58,0.00,,,0.02,weatherlink.com 1.10,2013-08-04 19:28:00,
2013-08-04 15:44:00,69.5,53.0,29.83,NW,319,6.0,20.0,57,0.00,,,0.02,weatherlink.com 1.10,2013-08-04 19:44:00,
2013-08-04 15:58:00,70.2,54.0,29.83,WNW,292,6.0,14.0,56,0.00,,,0.02,weatherlink.com 1.10,2013-08-04 19:58:00,
2013-08-04 16:13:00,70.7,49.0,29.83,North,355,12.0,20.0,47,0.00,,,0.02,weatherlink.com 1.10,2013-08-04 20:13:00,
2013-08-04 16:28:00,70.6,49.0,29.83,West,271,4.0,17.0,47,0.00,,,0.02,weatherlink.com 1.10,2013-08-04 20:28:00,
2013-08-04 16:43:00,70.6,51.0,29.83,North,5,5.0,16.0,51,0.00,,,0.02,weatherlink.com 1.10,2013-08-04 20:43:00,
2013-08-04 16:58:00,70.9,51.0,29.84,NW,306,9.0,15.0,49,0.00,,,0.02,weatherlink.com 1.10,2013-08-04 20:58:00,
2013-08-04 17:13:00,70.6,50.0,29.84,NW,324,7.0,20.0,48,0.00,,,0.02,weatherlink.com 1.10,2013-08-04 21:13:00,
2013-08-04 17:28:00,68.1,49.0,29.84,West,271,7.0,14.0,51,0.00,,,0.02,weatherlink.com 1.10,2013-08-04 21:28:00,
2013-08-04 17:43:00,68.9,50.0,29.85,NNW,342,8.0,16.0,51,0.00,,,0.02,weatherlink.com 1.10,2013-08-04 21:43:00,
2013-08-04 17:58:00,68.5,50.0,29.85,NNE,25,3.0,17.0,51,0.00,,,0.02,weatherlink.com 1.10,2013-08-04 21:58:00,
2013-08-04 18:13:00,66.3,50.0,29.85,NNW,344,6.0,18.0,56,0.00,,,0.02,weatherlink.com 1.10,2013-08-04 22:13:00,
2013-08-04 18:28:00,67.1,50.0,29.86,North,9,9.0,13.0,55,0.00,,,0.02,weatherlink.com 1.10,2013-08-04 22:28:00,
2013-08-04 18:43:00,66.7,50.0,29.87,NNW,348,8.0,15.0,55,0.00,,,0.02,weatherlink.com 1.10,2013-08-04 22:43:00,
2013-08-04 18:58:00,65.4,51.0,29.87,NNW,337,8.0,12.0,59,0.00,,,0.02,weatherlink.com 1.10,2013-08-04 22:58:00,
2013-08-04 19:13:00,65.6,51.0,29.87,NW,315,13.0,17.0,59,0.00,,,0.02,weatherlink.com 1.10,2013-08-04 23:13:00,
2013-08-04 19:28:00,64.1,50.0,29.88,NW,321,7.0,15.0,61,0.00,,,0.02,weatherlink.com 1.10,2013-08-04 23:28:00,
2013-08-04 19:43:00,63.8,50.0,29.89,NNE,18,4.0,16.0,61,0.00,,,0.02,weatherlink.com 1.10,2013-08-04 23:43:00,
2013-08-04 19:58:00,62.8,49.0,29.89,NNW,338,8.0,13.0,62,0.00,,,0.02,weatherlink.com 1.10,2013-08-04 23:58:00,
2013-08-04 20:13:00,61.6,49.0,29.90,NNE,22,2.0,12.0,64,0.00,,,0.02,weatherlink.com 1.10,2013-08-05 00:13:00,
2013-08-04 20:28:00,60.8,49.0,29.91,NNW,333,4.0,15.0,66,0.00,,,0.02,weatherlink.com 1.10,2013-08-05 00:28:00,
2013-08-04 20:43:00,60.5,49.0,29.91,North,360,3.0,8.0,67,0.00,,,0.02,weatherlink.com 1.10,2013-08-05 00:43:00,
2013-08-04 20:58:00,59.9,50.0,29.91,North,355,3.0,9.0,69,0.00,,,0.02,weatherlink.com 1.10,2013-08-05 00:58:00,
2013-08-04 21:13:00,59.1,50.0,29.92,NNE,17,2.0,10.0,71,0.00,,,0.02,weatherlink.com 1.10,2013-08-05 01:13:00,
2013-08-04 21:28:00,58.2,50.0,29.92,NNW,344,5.0,8.0,74,0.00,,,0.02,weatherlink.com 1.10,2013-08-05 01:28:00,
2013-08-04 21:43:00,57.6,50.0,29.92,NNW,346,7.0,8.0,75,0.00,,,0.02,weatherlink.com 1.10,2013-08-05 01:43:00,
2013-08-04 21:58:00,57.5,50.0,29.93,NNE,26,5.0,6.0,76,0.00,,,0.02,weatherlink.com 1.10,2013-08-05 01:58:00,
2013-08-04 22:13:00,57.3,50.0,29.93,North,355,7.0,10.0,77,0.00,,,0.02,weatherlink.com 1.10,2013-08-05 02:13:00,
2013-08-04 22:29:00,57.1,50.0,29.94,NNE,22,5.0,7.0,77,0.00,,,0.02,weatherlink.com 1.10,2013-08-05 02:29:00,
2013-08-04 22:43:00,56.7,50.0,29.94,North,9,0.0,4.0,78,0.00,,,0.02,weatherlink.com 1.10,2013-08-05 02:43:00,
2013-08-04 22:59:00,56.0,50.0,29.94,NNE,15,2.0,4.0,79,0.00,,,0.02,weatherlink.com 1.10,2013-08-05 02:59:00,
2013-08-04 23:14:00,55.4,50.0,29.94,NE,40,2.0,5.0,81,0.00,,,0.02,weatherlink.com 1.10,2013-08-05 03:14:00,
2013-08-04 23:29:00,55.1,50.0,29.94,NNE,15,1.0,5.0,82,0.00,,,0.02,weatherlink.com 1.10,2013-08-05 03:29:00,
2013-08-04 23:44:00,54.9,50.0,29.94,North,360,3.0,6.0,82,0.00,,,0.02,weatherlink.com 1.10,2013-08-05 03:44:00,
2013-08-04 23:58:00,54.7,50.0,29.94,North,9,2.0,4.0,83,0.00,,,0.02,weatherlink.com 1.10,2013-08-05 03:58:00,